Time;durP1;ratioP1;P1;durP2;ratioP2;P2;SDS_P1;SDS_P2;PMS_P1;PMS_P2;Temp;Humidity;BMP_temperature;BMP_pressure;BME280_temperature;BME280_humidity;BME280_pressure;Samples;Min_cycle;Max_cycle;Signal;HPM_P1;HPM_P2
2023/05/24 00:00:31;;;;;;;2.70;2.50;;;;;;;;;;5077417;28;20304;-64
2023/05/24 00:02:59;;;;;;;6.53;3.37;;;;;;;;;;5077727;28;20206;-64
2023/05/24 00:05:29;;;;;;;2.97;2.67;;;;;;;;;;5077283;28;20610;-64
2023/05/24 00:08:00;;;;;;;3.53;3.23;;;;;;;;;;5077717;28;20234;-64
2023/05/24 00:10:28;;;;;;;3.33;3.03;;;;;;;;;;5077711;28;20229;-64
2023/05/24 00:12:55;;;;;;;4.67;3.20;;;;;;;;;;5077528;28;20256;-64
2023/05/24 00:15:24;;;;;;;3.70;3.33;;;;;;;;;;5077261;28;20218;-64
2023/05/24 00:17:52;;;;;;;3.57;3.23;;;;;;;;;;5077508;28;20260;-64
2023/05/24 00:20:20;;;;;;;4.40;3.10;;;;;;;;;;5077406;28;20209;-64
2023/05/24 00:22:48;;;;;;;4.73;3.13;;;;;;;;;;5077502;28;20661;-64
2023/05/24 00:25:17;;;;;;;8.13;3.30;;;;;;;;;;5077587;28;20230;-64
2023/05/24 00:27:45;;;;;;;4.07;3.30;;;;;;;;;;5077307;28;20591;-64
2023/05/24 00:30:14;;;;;;;3.30;3.00;;;;;;;;;;5077428;28;20206;-64
2023/05/24 00:32:42;;;;;;;4.57;3.00;;;;;;;;;;5077535;28;20245;-64
2023/05/24 00:35:10;;;;;;;3.43;3.13;;;;;;;;;;5077465;28;20313;-64
2023/05/24 00:37:40;;;;;;;3.30;2.90;;;;;;;;;;5077171;28;20233;-64
2023/05/24 00:40:09;;;;;;;5.57;3.47;;;;;;;;;;5077192;28;20592;-64
2023/05/24 00:42:38;;;;;;;3.63;3.33;;;;;;;;;;5077209;28;20641;-64
2023/05/24 00:45:07;;;;;;;6.10;3.63;;;;;;;;;;5076785;28;20695;-65
2023/05/24 00:47:35;;;;;;;3.43;3.13;;;;;;;;;;5077117;28;20210;-64
2023/05/24 00:50:04;;;;;;;5.10;3.27;;;;;;;;;;5077160;28;20236;-64
2023/05/24 00:52:32;;;;;;;3.93;3.37;;;;;;;;;;5077300;28;20212;-64
2023/05/24 00:55:00;;;;;;;4.60;3.30;;;;;;;;;;5076771;28;20213;-64
2023/05/24 00:57:28;;;;;;;4.13;3.27;;;;;;;;;;5077426;28;20209;-64
2023/05/24 00:59:58;;;;;;;3.43;3.13;;;;;;;;;;5077197;28;20210;-64
2023/05/24 01:02:26;;;;;;;3.33;3.03;;;;;;;;;;5076978;28;20248;-64
2023/05/24 01:04:55;;;;;;;4.53;3.80;;;;;;;;;;5077179;28;20230;-64
2023/05/24 01:07:26;;;;;;;5.70;3.87;;;;;;;;;;5077150;28;20206;-64
2023/05/24 01:10:03;;;;;;;3.77;3.33;;;;;;;;;;5077121;28;20218;-65
2023/05/24 01:12:35;;;;;;;4.63;3.93;;;;;;;;;;5076951;28;20598;-64
2023/05/24 01:15:09;;;;;;;6.27;4.10;;;;;;;;;;5076867;28;20202;-64
2023/05/24 01:17:41;;;;;;;6.33;3.90;;;;;;;;;;5080303;28;20232;-63
2023/05/24 01:20:13;;;;;;;4.77;3.53;;;;;;;;;;5080974;28;20569;-65
2023/05/24 01:22:56;;;;;;;3.97;3.67;;;;;;;;;;5081340;28;20202;-64
2023/05/24 01:25:36;;;;;;;4.60;3.50;;;;;;;;;;5081197;28;20225;-65
2023/05/24 01:28:06;;;;;;;4.00;3.60;;;;;;;;;;5080147;28;20247;-64
2023/05/24 01:30:35;;;;;;;6.30;3.83;;;;;;;;;;5080705;28;20623;-64
2023/05/24 01:33:03;;;;;;;4.93;3.43;;;;;;;;;;5080885;28;20584;-64
2023/05/24 01:35:33;;;;;;;3.40;3.10;;;;;;;;;;5080754;28;20256;-64
2023/05/24 01:38:01;;;;;;;4.40;3.70;;;;;;;;;;5081157;28;20206;-65
2023/05/24 01:40:29;;;;;;;7.20;4.03;;;;;;;;;;5080725;28;20210;-63
2023/05/24 01:43:00;;;;;;;5.00;3.63;;;;;;;;;;5078361;28;20198;-65
2023/05/24 01:45:33;;;;;;;4.80;3.73;;;;;;;;;;5073626;28;20260;-64
2023/05/24 01:48:04;;;;;;;3.83;3.53;;;;;;;;;;5080971;28;20232;-65
2023/05/24 01:50:34;;;;;;;3.90;3.50;;;;;;;;;;5080957;28;20209;-65
2023/05/24 01:53:04;;;;;;;3.70;3.40;;;;;;;;;;5080729;28;20232;-64
2023/05/24 01:55:32;;;;;;;5.27;3.90;;;;;;;;;;5080659;28;20226;-65
2023/05/24 01:58:02;;;;;;;5.00;3.63;;;;;;;;;;5080754;28;20214;-65
2023/05/24 02:00:31;;;;;;;3.93;3.50;;;;;;;;;;5079947;28;20257;-65
2023/05/24 02:03:00;;;;;;;6.00;3.70;;;;;;;;;;5080695;28;20211;-64
2023/05/24 02:05:29;;;;;;;4.27;3.83;;;;;;;;;;5080079;28;20762;-65
2023/05/24 02:07:57;;;;;;;3.87;3.53;;;;;;;;;;5080111;28;20210;-65
2023/05/24 02:10:25;;;;;;;4.40;3.70;;;;;;;;;;5080159;28;20661;-65
2023/05/24 02:12:53;;;;;;;6.30;4.00;;;;;;;;;;5080467;28;20216;-65
2023/05/24 02:15:21;;;;;;;4.87;3.93;;;;;;;;;;5080101;28;20248;-64
2023/05/24 02:17:53;;;;;;;4.43;3.47;;;;;;;;;;5080567;28;20206;-64
2023/05/24 02:20:22;;;;;;;3.83;3.50;;;;;;;;;;5080783;28;20669;-64
2023/05/24 02:22:51;;;;;;;4.43;4.03;;;;;;;;;;5080012;28;20213;-64
2023/05/24 02:25:19;;;;;;;5.03;3.70;;;;;;;;;;5080166;28;20240;-64
2023/05/24 02:27:47;;;;;;;4.70;3.50;;;;;;;;;;5078510;28;20219;-65
2023/05/24 02:30:15;;;;;;;4.80;3.77;;;;;;;;;;5079691;28;20210;-64
2023/05/24 02:32:43;;;;;;;4.33;3.50;;;;;;;;;;5080020;28;20206;-65
2023/05/24 02:35:12;;;;;;;5.13;3.80;;;;;;;;;;5080066;28;20226;-65
2023/05/24 02:37:40;;;;;;;6.53;4.00;;;;;;;;;;5079809;28;20255;-64
2023/05/24 02:40:09;;;;;;;4.40;4.00;;;;;;;;;;5079706;28;20670;-65
2023/05/24 02:42:37;;;;;;;4.93;3.67;;;;;;;;;;5079615;28;20221;-65
2023/05/24 02:45:05;;;;;;;4.07;3.50;;;;;;;;;;5079244;28;20716;-64
2023/05/24 02:47:33;;;;;;;6.20;3.80;;;;;;;;;;5079764;28;20242;-65
2023/05/24 02:50:01;;;;;;;4.70;4.00;;;;;;;;;;5079996;28;20214;-64
2023/05/24 02:52:31;;;;;;;4.93;3.93;;;;;;;;;;5079510;28;20674;-65
2023/05/24 02:54:59;;;;;;;7.23;3.93;;;;;;;;;;5079183;28;20611;-65
2023/05/24 02:57:27;;;;;;;5.43;4.00;;;;;;;;;;5079387;28;20689;-64
2023/05/24 02:59:55;;;;;;;5.83;4.27;;;;;;;;;;5079386;28;20206;-64
2023/05/24 03:02:24;;;;;;;4.40;3.90;;;;;;;;;;5079454;28;20284;-64
2023/05/24 03:04:52;;;;;;;5.90;4.33;;;;;;;;;;5079295;28;20244;-64
2023/05/24 03:07:20;;;;;;;5.67;3.87;;;;;;;;;;5079105;28;20227;-65
2023/05/24 03:09:50;;;;;;;5.67;4.37;;;;;;;;;;5079166;28;20206;-64
2023/05/24 03:12:18;;;;;;;6.03;4.00;;;;;;;;;;5079029;28;20211;-65
2023/05/24 03:14:46;;;;;;;4.20;3.80;;;;;;;;;;5079036;28;20217;-66
2023/05/24 03:17:14;;;;;;;4.13;3.73;;;;;;;;;;5079285;28;20237;-64
2023/05/24 03:19:42;;;;;;;4.87;4.20;;;;;;;;;;5079045;28;20214;-64
2023/05/24 03:22:10;;;;;;;4.33;3.93;;;;;;;;;;5078907;28;20217;-64
2023/05/24 03:24:38;;;;;;;4.33;3.93;;;;;;;;;;5077697;28;20687;-64
2023/05/24 03:27:08;;;;;;;7.03;4.40;;;;;;;;;;5074939;28;20280;-64
2023/05/24 03:29:36;;;;;;;4.93;3.50;;;;;;;;;;5078649;28;20206;-64
2023/05/24 03:32:04;;;;;;;7.10;4.30;;;;;;;;;;5078716;28;20206;-64
2023/05/24 03:34:32;;;;;;;4.30;3.90;;;;;;;;;;5078799;28;20212;-64
2023/05/24 03:37:00;;;;;;;4.23;3.77;;;;;;;;;;5078511;28;20225;-64
2023/05/24 03:39:28;;;;;;;4.80;4.30;;;;;;;;;;5078184;28;20213;-63
2023/05/24 03:41:56;;;;;;;4.13;3.73;;;;;;;;;;5079118;28;20199;-63
2023/05/24 03:44:26;;;;;;;5.57;4.77;;;;;;;;;;5076286;28;20273;-63
2023/05/24 03:46:54;;;;;;;4.73;4.23;;;;;;;;;;5070470;28;20313;-63
2023/05/24 03:49:22;;;;;;;5.80;4.87;;;;;;;;;;5078299;28;20275;-64
2023/05/24 03:51:50;;;;;;;5.57;4.73;;;;;;;;;;5078338;28;20206;-63
2023/05/24 03:54:18;;;;;;;6.10;4.60;;;;;;;;;;5078134;28;20202;-65
2023/05/24 03:56:46;;;;;;;5.17;4.30;;;;;;;;;;5078385;28;20218;-65
2023/05/24 03:59:14;;;;;;;8.27;4.87;;;;;;;;;;5078123;28;20260;-64
2023/05/24 04:01:43;;;;;;;4.33;3.93;;;;;;;;;;5077966;28;20605;-65
2023/05/24 04:04:11;;;;;;;5.23;3.83;;;;;;;;;;5078322;28;20206;-65
2023/05/24 04:06:40;;;;;;;4.97;4.13;;;;;;;;;;5077856;28;20283;-65
2023/05/24 04:09:08;;;;;;;5.43;4.23;;;;;;;;;;5077753;28;20288;-65
2023/05/24 04:11:36;;;;;;;5.83;4.53;;;;;;;;;;5077585;28;20205;-65
2023/05/24 04:14:05;;;;;;;5.77;4.30;;;;;;;;;;5077841;28;20213;-64
2023/05/24 04:16:33;;;;;;;6.27;4.03;;;;;;;;;;5078222;28;20254;-65
2023/05/24 04:19:03;;;;;;;5.10;4.60;;;;;;;;;;5077889;28;20285;-65
2023/05/24 04:21:32;;;;;;;5.93;4.20;;;;;;;;;;5078022;28;20224;-65
2023/05/24 04:24:00;;;;;;;6.43;4.40;;;;;;;;;;5077066;28;20254;-65
2023/05/24 04:26:28;;;;;;;6.03;4.60;;;;;;;;;;5077104;28;20226;-65
2023/05/24 04:28:56;;;;;;;8.90;4.60;;;;;;;;;;5078019;28;20615;-65
2023/05/24 04:31:24;;;;;;;8.07;4.23;;;;;;;;;;5077867;28;20207;-65
2023/05/24 04:33:53;;;;;;;6.37;4.10;;;;;;;;;;5077822;28;20202;-65
2023/05/24 04:36:23;;;;;;;9.00;4.97;;;;;;;;;;5077875;28;20231;-65
2023/05/24 04:38:54;;;;;;;6.47;4.63;;;;;;;;;;5077851;28;20206;-65
2023/05/24 04:41:23;;;;;;;9.67;4.73;;;;;;;;;;5077599;28;20253;-65
2023/05/24 04:43:52;;;;;;;7.47;4.47;;;;;;;;;;5077722;28;20202;-65
2023/05/24 04:46:22;;;;;;;7.23;4.63;;;;;;;;;;5077177;28;20234;-65
2023/05/24 04:48:50;;;;;;;7.40;5.00;;;;;;;;;;5077640;28;20568;-65
2023/05/24 04:51:18;;;;;;;5.43;4.93;;;;;;;;;;5078821;28;20205;-65
2023/05/24 04:53:48;;;;;;;6.40;4.60;;;;;;;;;;5081592;28;20672;-65
2023/05/24 04:56:16;;;;;;;7.50;4.53;;;;;;;;;;5082232;28;20232;-65
2023/05/24 04:58:48;;;;;;;5.57;4.50;;;;;;;;;;5081553;28;20607;-64
2023/05/24 05:01:16;;;;;;;6.37;5.10;;;;;;;;;;5081155;28;20238;-65
2023/05/24 05:03:44;;;;;;;8.57;4.90;;;;;;;;;;5081472;28;20210;-65
2023/05/24 05:06:13;;;;;;;7.50;5.00;;;;;;;;;;5081663;28;20230;-66
2023/05/24 05:08:40;;;;;;;6.27;5.03;;;;;;;;;;5081628;28;20206;-66
2023/05/24 05:11:14;;;;;;;7.63;4.60;;;;;;;;;;5081598;28;20258;-66
2023/05/24 05:13:42;;;;;;;4.97;4.43;;;;;;;;;;5081642;28;20225;-65
2023/05/24 05:16:10;;;;;;;6.60;4.47;;;;;;;;;;5081119;28;20232;-66
2023/05/24 05:18:38;;;;;;;7.90;4.50;;;;;;;;;;5081262;28;20210;-65
2023/05/24 05:21:06;;;;;;;6.87;4.50;;;;;;;;;;5081115;28;20210;-65
2023/05/24 05:23:35;;;;;;;6.30;4.80;;;;;;;;;;5081220;28;20207;-66
2023/05/24 05:26:03;;;;;;;6.07;4.77;;;;;;;;;;5081710;28;20233;-66
2023/05/24 05:28:32;;;;;;;5.20;4.50;;;;;;;;;;5081539;28;20226;-66
2023/05/24 05:31:00;;;;;;;6.40;4.70;;;;;;;;;;5081918;28;20202;-65
2023/05/24 05:33:28;;;;;;;5.93;4.90;;;;;;;;;;5081310;28;20206;-66
2023/05/24 05:35:56;;;;;;;5.13;4.63;;;;;;;;;;5081415;28;20257;-65
2023/05/24 05:38:24;;;;;;;5.37;4.20;;;;;;;;;;5081297;28;20202;-65
2023/05/24 05:40:52;;;;;;;6.93;5.07;;;;;;;;;;5080552;28;20535;-65
2023/05/24 05:43:20;;;;;;;9.47;4.50;;;;;;;;;;5080766;28;20204;-64
2023/05/24 05:45:50;;;;;;;12.00;5.73;;;;;;;;;;5078137;28;20226;-64
2023/05/24 05:48:18;;;;;;;7.30;5.47;;;;;;;;;;5066635;28;20283;-65
2023/05/24 05:50:46;;;;;;;8.33;5.23;;;;;;;;;;5076996;28;20218;-65
2023/05/24 05:53:14;;;;;;;6.23;4.63;;;;;;;;;;5080823;28;20210;-65
2023/05/24 05:55:42;;;;;;;10.83;5.17;;;;;;;;;;5080334;28;20654;-65
2023/05/24 05:58:11;;;;;;;8.50;5.43;;;;;;;;;;5080575;28;20560;-65
2023/05/24 06:00:40;;;;;;;9.07;4.67;;;;;;;;;;5080293;28;20242;-65
2023/05/24 06:03:09;;;;;;;9.97;5.20;;;;;;;;;;5080417;28;20210;-65
2023/05/24 06:05:38;;;;;;;12.67;5.90;;;;;;;;;;5080466;28;20226;-65
2023/05/24 06:08:06;;;;;;;9.03;5.23;;;;;;;;;;5080064;28;20639;-65
2023/05/24 06:10:34;;;;;;;5.17;4.53;;;;;;;;;;5080422;28;20202;-65
2023/05/24 06:13:03;;;;;;;5.20;4.67;;;;;;;;;;5080467;28;20271;-66
2023/05/24 06:15:32;;;;;;;11.90;5.00;;;;;;;;;;5079971;28;20225;-65
2023/05/24 06:18:00;;;;;;;7.80;5.10;;;;;;;;;;5080168;28;20254;-65
2023/05/24 06:20:30;;;;;;;6.20;4.83;;;;;;;;;;5080086;28;20213;-65
2023/05/24 06:22:58;;;;;;;5.17;4.60;;;;;;;;;;5079836;28;20210;-65
2023/05/24 06:25:29;;;;;;;7.23;5.17;;;;;;;;;;5080023;28;20279;-65
2023/05/24 06:27:57;;;;;;;7.20;5.53;;;;;;;;;;5075301;28;20720;-65
2023/05/24 06:30:25;;;;;;;8.10;4.97;;;;;;;;;;5079895;28;20206;-65
2023/05/24 06:32:54;;;;;;;6.17;5.30;;;;;;;;;;5080081;28;20218;-66
2023/05/24 06:35:22;;;;;;;11.03;5.27;;;;;;;;;;5079721;28;20288;-65
2023/05/24 06:37:51;;;;;;;8.93;5.83;;;;;;;;;;5079717;28;20206;-65
2023/05/24 06:40:19;;;;;;;8.30;4.97;;;;;;;;;;5079667;28;20665;-65
2023/05/24 06:42:47;;;;;;;6.47;5.40;;;;;;;;;;5066497;28;20206;-63
2023/05/24 06:45:15;;;;;;;9.10;5.30;;;;;;;;;;5079453;28;20242;-64
2023/05/24 06:47:43;;;;;;;7.43;5.03;;;;;;;;;;5079626;28;20218;-65
2023/05/24 06:50:12;;;;;;;7.70;5.50;;;;;;;;;;5079400;28;20210;-63
2023/05/24 06:52:40;;;;;;;7.93;4.60;;;;;;;;;;5079460;28;20233;-64
2023/05/24 06:55:10;;;;;;;8.90;5.67;;;;;;;;;;5079386;28;20233;-64
2023/05/24 06:57:38;;;;;;;9.30;4.80;;;;;;;;;;5079662;28;20205;-63
2023/05/24 07:00:11;;;;;;;15.77;10.53;;;;;;;;;;5079263;28;20240;-64
2023/05/24 07:02:39;;;;;;;11.00;5.90;;;;;;;;;;5079378;28;20206;-65
2023/05/24 07:05:10;;;;;;;9.53;5.57;;;;;;;;;;5079022;28;20226;-65
2023/05/24 07:07:39;;;;;;;8.20;5.67;;;;;;;;;;5079320;28;20237;-66
2023/05/24 07:10:09;;;;;;;8.03;4.97;;;;;;;;;;5079033;28;20739;-65
2023/05/24 07:12:38;;;;;;;9.70;6.03;;;;;;;;;;5079434;28;20206;-65
2023/05/24 07:15:07;;;;;;;5.73;4.90;;;;;;;;;;5077641;28;20685;-65
2023/05/24 07:17:35;;;;;;;6.23;5.20;;;;;;;;;;5078869;28;20210;-66
2023/05/24 07:20:06;;;;;;;6.83;5.37;;;;;;;;;;5078509;28;20700;-64
2023/05/24 07:22:34;;;;;;;6.90;4.70;;;;;;;;;;5078582;28;20259;-65
2023/05/24 07:25:03;;;;;;;7.43;5.33;;;;;;;;;;5078412;28;20215;-64
2023/05/24 07:27:31;;;;;;;8.03;5.80;;;;;;;;;;5078415;28;20202;-63
2023/05/24 07:30:01;;;;;;;5.93;5.10;;;;;;;;;;5078355;28;20232;-64
2023/05/24 07:32:29;;;;;;;7.17;5.60;;;;;;;;;;5078417;28;20210;-66
2023/05/24 07:34:57;;;;;;;7.77;5.03;;;;;;;;;;5078613;28;20210;-65
2023/05/24 07:37:25;;;;;;;8.33;5.70;;;;;;;;;;5078167;28;20232;-65
2023/05/24 07:39:53;;;;;;;7.97;5.50;;;;;;;;;;5078335;28;20210;-65
2023/05/24 07:42:21;;;;;;;7.60;5.60;;;;;;;;;;5078460;28;20206;-65
2023/05/24 07:44:49;;;;;;;8.77;5.73;;;;;;;;;;5077857;28;20681;-64
2023/05/24 07:47:19;;;;;;;9.80;5.67;;;;;;;;;;5078153;28;20254;-65
2023/05/24 07:49:47;;;;;;;7.43;5.80;;;;;;;;;;5067857;28;20229;-65
2023/05/24 07:52:15;;;;;;;8.00;6.10;;;;;;;;;;5079053;28;20245;-64
2023/05/24 07:54:43;;;;;;;7.03;4.93;;;;;;;;;;5078329;28;20210;-64
2023/05/24 07:57:11;;;;;;;7.50;5.70;;;;;;;;;;5078509;28;20230;-64
2023/05/24 07:59:39;;;;;;;9.07;5.70;;;;;;;;;;5077763;28;20587;-65
2023/05/24 08:02:10;;;;;;;7.10;5.60;;;;;;;;;;5078155;28;20277;-63
2023/05/24 08:04:40;;;;;;;7.77;5.73;;;;;;;;;;5078038;28;20734;-64
2023/05/24 08:07:08;;;;;;;9.40;7.17;;;;;;;;;;5077985;28;20587;-64
2023/05/24 08:09:37;;;;;;;8.23;6.33;;;;;;;;;;5064585;28;20222;-65
2023/05/24 08:12:06;;;;;;;7.93;7.10;;;;;;;;;;5078202;28;20202;-65
2023/05/24 08:14:34;;;;;;;9.27;6.10;;;;;;;;;;5077981;28;20210;-65
2023/05/24 08:17:02;;;;;;;10.27;6.10;;;;;;;;;;5077790;28;20697;-65
2023/05/24 08:19:34;;;;;;;9.40;6.20;;;;;;;;;;5078220;28;20236;-65
2023/05/24 08:22:04;;;;;;;7.73;5.47;;;;;;;;;;5078076;28;20247;-65
2023/05/24 08:24:32;;;;;;;7.47;5.80;;;;;;;;;;5078053;28;20301;-64
2023/05/24 08:27:01;;;;;;;9.97;5.33;;;;;;;;;;5077762;28;20222;-64
2023/05/24 08:29:29;;;;;;;9.77;6.00;;;;;;;;;;5077458;28;20242;-64
2023/05/24 08:31:58;;;;;;;8.93;5.83;;;;;;;;;;5077685;28;20690;-64
2023/05/24 08:34:27;;;;;;;8.33;6.97;;;;;;;;;;5078037;28;20213;-64
2023/05/24 08:36:55;;;;;;;7.23;6.43;;;;;;;;;;5077783;28;20592;-64
2023/05/24 08:39:24;;;;;;;8.07;6.07;;;;;;;;;;5077879;28;20207;-65
2023/05/24 08:41:52;;;;;;;9.27;7.03;;;;;;;;;;5077561;28;20206;-65
2023/05/24 08:44:41;;;;;;;10.83;5.87;;;;;;;;;;5077411;28;20267;-65
2023/05/24 08:47:09;;;;;;;11.53;6.63;;;;;;;;;;5077378;28;20267;-64
2023/05/24 08:49:37;;;;;;;10.53;6.30;;;;;;;;;;5077467;28;20226;-63
2023/05/24 08:52:07;;;;;;;8.67;6.53;;;;;;;;;;5077688;28;20210;-65
2023/05/24 08:54:36;;;;;;;9.47;6.53;;;;;;;;;;5075106;28;20240;-65
2023/05/24 08:57:05;;;;;;;12.10;6.07;;;;;;;;;;5070765;28;20226;-64
2023/05/24 08:59:33;;;;;;;7.97;5.83;;;;;;;;;;5077135;28;20224;-65
2023/05/24 09:02:03;;;;;;;9.10;6.33;;;;;;;;;;5066647;28;20234;-63
2023/05/24 09:04:32;;;;;;;6.87;5.90;;;;;;;;;;5067587;28;20248;-65
2023/05/24 09:07:00;;;;;;;7.17;6.47;;;;;;;;;;5076771;28;20271;-65
2023/05/24 09:09:28;;;;;;;9.20;6.50;;;;;;;;;;5076958;28;20629;-64
2023/05/24 09:12:00;;;;;;;11.33;6.37;;;;;;;;;;5077331;28;20216;-63
2023/05/24 09:14:29;;;;;;;7.07;5.93;;;;;;;;;;5077109;28;20264;-64
2023/05/24 09:16:57;;;;;;;8.73;6.40;;;;;;;;;;5077389;28;20226;-63
2023/05/24 09:19:26;;;;;;;11.27;6.27;;;;;;;;;;5077060;28;20226;-63
2023/05/24 09:21:56;;;;;;;8.93;6.90;;;;;;;;;;5077260;28;20240;-63
2023/05/24 09:24:24;;;;;;;11.27;7.00;;;;;;;;;;5076927;28;20212;-63
2023/05/24 09:26:52;;;;;;;9.70;7.07;;;;;;;;;;5076803;28;20566;-63
2023/05/24 09:29:23;;;;;;;8.50;6.63;;;;;;;;;;5076752;28;20230;-65
2023/05/24 09:31:55;;;;;;;10.97;7.10;;;;;;;;;;5075319;28;20202;-64
2023/05/24 09:34:23;;;;;;;9.10;6.40;;;;;;;;;;5076761;28;20210;-64
2023/05/24 09:36:52;;;;;;;12.87;7.63;;;;;;;;;;5077086;28;20218;-64
2023/05/24 09:39:21;;;;;;;11.30;7.07;;;;;;;;;;5080213;28;20567;-64
2023/05/24 09:41:54;;;;;;;12.10;6.77;;;;;;;;;;5080620;28;20202;-64
2023/05/24 09:44:26;;;;;;;9.63;7.53;;;;;;;;;;5080187;28;20241;-63
2023/05/24 09:46:54;;;;;;;12.63;7.43;;;;;;;;;;5080079;28;20628;-63
2023/05/24 09:49:23;;;;;;;11.87;7.70;;;;;;;;;;5080225;28;20280;-62
2023/05/24 09:51:52;;;;;;;10.40;7.30;;;;;;;;;;5080281;28;20249;-63
2023/05/24 09:54:20;;;;;;;8.83;6.47;;;;;;;;;;5080130;28;20237;-63
2023/05/24 09:56:48;;;;;;;7.90;6.97;;;;;;;;;;5079804;28;20237;-63
2023/05/24 09:59:16;;;;;;;10.20;6.93;;;;;;;;;;5079840;28;20206;-65
2023/05/24 10:01:46;;;;;;;12.20;7.50;;;;;;;;;;5080179;28;20242;-65
2023/05/24 10:04:14;;;;;;;8.73;7.13;;;;;;;;;;5080397;28;20213;-65
2023/05/24 10:06:42;;;;;;;8.33;7.23;;;;;;;;;;5079716;28;20245;-65
2023/05/24 10:09:12;;;;;;;13.27;7.43;;;;;;;;;;5079919;28;20305;-63
2023/05/24 10:11:41;;;;;;;12.93;7.70;;;;;;;;;;5080099;28;20563;-64
2023/05/24 10:14:09;;;;;;;10.30;7.87;;;;;;;;;;5079831;28;20288;-65
2023/05/24 10:16:37;;;;;;;10.00;7.87;;;;;;;;;;5079835;28;20226;-65
2023/05/24 10:19:07;;;;;;;10.37;7.83;;;;;;;;;;5080140;28;20260;-65
2023/05/24 10:21:37;;;;;;;9.90;7.50;;;;;;;;;;5079807;28;20210;-65
2023/05/24 10:24:07;;;;;;;11.87;7.70;;;;;;;;;;5079712;28;20593;-64
2023/05/24 10:26:37;;;;;;;9.00;8.03;;;;;;;;;;5079510;28;20309;-64
2023/05/24 10:29:07;;;;;;;9.50;7.93;;;;;;;;;;5079559;28;20222;-63
2023/05/24 10:31:37;;;;;;;11.33;7.63;;;;;;;;;;5079811;28;20238;-64
2023/05/24 10:34:07;;;;;;;11.40;7.20;;;;;;;;;;5079447;28;20325;-64
2023/05/24 10:36:39;;;;;;;10.57;7.47;;;;;;;;;;5079528;28;20244;-63
2023/05/24 10:39:09;;;;;;;11.10;7.17;;;;;;;;;;5079543;28;20210;-62
2023/05/24 10:41:41;;;;;;;9.87;7.10;;;;;;;;;;5079585;28;20206;-62
2023/05/24 10:44:13;;;;;;;10.83;7.27;;;;;;;;;;5079076;28;20572;-65
2023/05/24 10:46:59;;;;;;;9.40;6.63;;;;;;;;;;5079374;28;20226;-65
2023/05/24 10:49:30;;;;;;;11.50;6.93;;;;;;;;;;5078285;28;20206;-65
2023/05/24 10:52:01;;;;;;;7.83;6.50;;;;;;;;;;5079014;28;20264;-65
2023/05/24 10:54:29;;;;;;;7.43;6.43;;;;;;;;;;5078978;28;20205;-65
2023/05/24 10:57:02;;;;;;;11.17;7.47;;;;;;;;;;5079088;28;20257;-65
2023/05/24 10:59:38;;;;;;;9.43;6.63;;;;;;;;;;5078804;28;20264;-65
2023/05/24 11:02:08;;;;;;;7.60;6.80;;;;;;;;;;5078670;28;20237;-64
2023/05/24 11:04:39;;;;;;;9.60;6.13;;;;;;;;;;5078924;28;20210;-64
2023/05/24 11:07:09;;;;;;;7.13;6.27;;;;;;;;;;5079054;28;20226;-64
2023/05/24 11:09:38;;;;;;;9.63;6.77;;;;;;;;;;5079011;28;20293;-64
2023/05/24 11:12:07;;;;;;;8.60;6.43;;;;;;;;;;5079069;28;20210;-64
2023/05/24 11:14:38;;;;;;;7.90;5.93;;;;;;;;;;5078783;28;20278;-63
2023/05/24 11:17:06;;;;;;;9.90;6.80;;;;;;;;;;5079006;28;20230;-64
2023/05/24 11:19:35;;;;;;;8.33;5.97;;;;;;;;;;5079087;28;20256;-65
2023/05/24 11:22:06;;;;;;;12.10;7.93;;;;;;;;;;5079471;28;20240;-65
2023/05/24 11:24:35;;;;;;;10.80;7.43;;;;;;;;;;5078795;28;20571;-65
2023/05/24 11:27:04;;;;;;;9.83;6.93;;;;;;;;;;5078722;28;20226;-64
2023/05/24 11:29:32;;;;;;;6.67;6.07;;;;;;;;;;5078378;28;20673;-65
2023/05/24 11:32:05;;;;;;;8.13;6.70;;;;;;;;;;5078816;28;20208;-65
2023/05/24 11:34:33;;;;;;;7.67;5.70;;;;;;;;;;5078996;28;20202;-64
2023/05/24 11:37:04;;;;;;;10.40;6.20;;;;;;;;;;5078731;28;20222;-65
2023/05/24 11:39:34;;;;;;;6.67;5.70;;;;;;;;;;5079023;28;20213;-65
2023/05/24 11:42:05;;;;;;;6.67;5.13;;;;;;;;;;5079045;28;20212;-65
2023/05/24 11:44:34;;;;;;;7.97;5.50;;;;;;;;;;5078306;28;20220;-64
2023/05/24 11:47:02;;;;;;;6.77;5.97;;;;;;;;;;5078163;28;20230;-64
2023/05/24 11:49:30;;;;;;;5.77;5.07;;;;;;;;;;5078466;28;20293;-64
2023/05/24 11:52:01;;;;;;;8.37;5.90;;;;;;;;;;5078420;28;20264;-64
2023/05/24 11:54:31;;;;;;;6.97;5.73;;;;;;;;;;5078560;28;20263;-64
2023/05/24 11:57:01;;;;;;;7.73;5.97;;;;;;;;;;5078386;28;20237;-65
2023/05/24 11:59:29;;;;;;;7.70;6.37;;;;;;;;;;5078097;28;20210;-65
2023/05/24 12:02:01;;;;;;;8.03;5.77;;;;;;;;;;5066529;28;20227;-65
2023/05/24 12:04:29;;;;;;;7.97;5.67;;;;;;;;;;5078550;28;20217;-65
2023/05/24 12:06:58;;;;;;;7.90;5.40;;;;;;;;;;5078170;28;20253;-65
2023/05/24 12:09:26;;;;;;;6.33;4.93;;;;;;;;;;5078293;28;20237;-64
2023/05/24 12:11:54;;;;;;;6.17;5.57;;;;;;;;;;5077909;28;20265;-64
2023/05/24 12:14:26;;;;;;;8.23;5.83;;;;;;;;;;5077946;28;20210;-65
2023/05/24 12:16:55;;;;;;;6.53;5.20;;;;;;;;;;5077806;28;20248;-65
2023/05/24 12:19:25;;;;;;;6.67;5.53;;;;;;;;;;5078185;28;20210;-65
2023/05/24 12:22:00;;;;;;;8.10;6.07;;;;;;;;;;5078123;28;20206;-64
2023/05/24 12:24:28;;;;;;;8.47;5.43;;;;;;;;;;5077813;28;20205;-64
2023/05/24 12:26:58;;;;;;;8.10;6.03;;;;;;;;;;5077807;28;20222;-64
2023/05/24 12:29:32;;;;;;;5.83;5.33;;;;;;;;;;5077825;28;20207;-65
2023/05/24 12:32:00;;;;;;;8.00;5.70;;;;;;;;;;5077700;28;20229;-64
2023/05/24 12:34:30;;;;;;;8.13;5.70;;;;;;;;;;5078011;28;20236;-64
2023/05/24 12:36:58;;;;;;;6.43;4.97;;;;;;;;;;5077738;28;20234;-64
2023/05/24 12:39:30;;;;;;;8.20;5.27;;;;;;;;;;5077497;28;20273;-64
2023/05/24 12:42:00;;;;;;;6.13;5.53;;;;;;;;;;5077687;28;20661;-63
2023/05/24 12:44:30;;;;;;;7.30;5.57;;;;;;;;;;5077723;28;20221;-64
2023/05/24 12:46:59;;;;;;;7.60;5.03;;;;;;;;;;5077659;28;20609;-65
2023/05/24 12:49:27;;;;;;;6.60;5.63;;;;;;;;;;5077889;28;20213;-64
2023/05/24 12:51:55;;;;;;;6.60;5.30;;;;;;;;;;5077691;28;20223;-64
2023/05/24 12:54:24;;;;;;;6.23;5.17;;;;;;;;;;5077526;28;20224;-64
2023/05/24 12:56:53;;;;;;;6.37;5.40;;;;;;;;;;5077547;28;20272;-63
2023/05/24 12:59:24;;;;;;;7.03;5.00;;;;;;;;;;5077345;28;20650;-63
2023/05/24 13:01:53;;;;;;;6.53;4.80;;;;;;;;;;5077342;28;20241;-63
2023/05/24 13:04:23;;;;;;;5.53;4.87;;;;;;;;;;5077726;28;20222;-64
2023/05/24 13:06:51;;;;;;;6.50;4.70;;;;;;;;;;5077242;28;20704;-63
2023/05/24 13:09:20;;;;;;;6.27;5.47;;;;;;;;;;5077288;28;20252;-63
2023/05/24 13:11:48;;;;;;;5.43;4.57;;;;;;;;;;5077473;28;20226;-64
2023/05/24 13:14:17;;;;;;;6.20;4.87;;;;;;;;;;5081461;28;20206;-63
2023/05/24 13:16:45;;;;;;;6.20;4.60;;;;;;;;;;5081470;28;20230;-65
2023/05/24 13:19:15;;;;;;;5.37;4.03;;;;;;;;;;5081446;28;20669;-65
2023/05/24 13:21:43;;;;;;;4.60;4.20;;;;;;;;;;5081262;28;20654;-63
2023/05/24 13:24:12;;;;;;;5.53;4.33;;;;;;;;;;5081286;28;20214;-64
2023/05/24 13:26:40;;;;;;;6.07;4.90;;;;;;;;;;5081100;28;20252;-65
2023/05/24 13:29:08;;;;;;;7.73;4.70;;;;;;;;;;5080985;28;20213;-65
2023/05/24 13:31:39;;;;;;;6.43;4.30;;;;;;;;;;5081341;28;20231;-64
2023/05/24 13:34:09;;;;;;;6.10;4.53;;;;;;;;;;5080903;28;20292;-65
2023/05/24 13:36:39;;;;;;;6.93;4.40;;;;;;;;;;5081085;28;20226;-64
2023/05/24 13:39:08;;;;;;;4.40;4.00;;;;;;;;;;5080927;28;20210;-64
2023/05/24 13:41:39;;;;;;;7.33;4.53;;;;;;;;;;5081380;28;20206;-63
2023/05/24 13:44:08;;;;;;;7.20;4.63;;;;;;;;;;5080467;28;20252;-64
2023/05/24 13:46:37;;;;;;;5.67;4.63;;;;;;;;;;5080906;28;20235;-64
2023/05/24 13:49:05;;;;;;;8.17;4.60;;;;;;;;;;5080654;28;20211;-64
2023/05/24 13:51:33;;;;;;;5.73;3.93;;;;;;;;;;5080896;28;20226;-65
2023/05/24 13:54:03;;;;;;;4.63;4.17;;;;;;;;;;5080440;28;20232;-64
2023/05/24 13:56:33;;;;;;;5.17;4.07;;;;;;;;;;5080675;28;20226;-64
2023/05/24 13:59:02;;;;;;;5.57;4.23;;;;;;;;;;5080587;28;20249;-64
2023/05/24 14:01:30;;;;;;;5.50;4.90;;;;;;;;;;5077994;28;20242;-63
2023/05/24 14:03:58;;;;;;;6.17;4.27;;;;;;;;;;5072698;28;20206;-63
2023/05/24 14:06:26;;;;;;;7.00;4.27;;;;;;;;;;5080287;28;20234;-63
2023/05/24 14:08:54;;;;;;;4.60;3.80;;;;;;;;;;5080279;28;20264;-65
2023/05/24 14:11:25;;;;;;;5.30;4.50;;;;;;;;;;5079898;28;20233;-64
2023/05/24 14:13:53;;;;;;;4.47;4.07;;;;;;;;;;5079919;28;20252;-64
2023/05/24 14:16:24;;;;;;;4.43;4.00;;;;;;;;;;5079979;28;20239;-64
2023/05/24 14:18:52;;;;;;;5.00;3.67;;;;;;;;;;5080003;28;20245;-64
2023/05/24 14:21:22;;;;;;;7.53;4.30;;;;;;;;;;5079996;28;20219;-64
2023/05/24 14:23:50;;;;;;;5.47;4.27;;;;;;;;;;5079710;28;20202;-64
2023/05/24 14:26:18;;;;;;;4.53;4.07;;;;;;;;;;5079506;28;20601;-64
2023/05/24 14:28:48;;;;;;;5.27;4.07;;;;;;;;;;5079402;28;20572;-64
2023/05/24 14:31:16;;;;;;;5.80;4.10;;;;;;;;;;5066671;28;20203;-63
2023/05/24 14:33:44;;;;;;;5.73;4.13;;;;;;;;;;5079726;28;20236;-65
2023/05/24 14:36:12;;;;;;;5.83;4.23;;;;;;;;;;5079662;28;20225;-64
2023/05/24 14:38:40;;;;;;;6.63;4.07;;;;;;;;;;5079310;28;20240;-65
2023/05/24 14:41:08;;;;;;;5.63;3.97;;;;;;;;;;5079717;28;20217;-64
2023/05/24 14:43:37;;;;;;;6.63;4.43;;;;;;;;;;5079334;28;20210;-65
2023/05/24 14:46:06;;;;;;;7.70;4.00;;;;;;;;;;5079333;28;20255;-64
2023/05/24 14:48:36;;;;;;;6.20;4.03;;;;;;;;;;5079476;28;20218;-63
2023/05/24 14:51:04;;;;;;;4.70;3.70;;;;;;;;;;5079208;28;20216;-63